sensor_id;sensor_type;location;lat;lon;timestamp;pressure;altitude;pressure_sealevel;temperature;humidity
3917;BME280;1973;50.518;7.318;2024-01-11T00:02:24;102388.22;;;-4.97;100.00
3917;BME280;1973;50.518;7.318;2024-01-11T00:04:51;102390.03;;;-4.98;100.00
3917;BME280;1973;50.518;7.318;2024-01-11T00:07:17;102398.19;;;-4.99;100.00
3917;BME280;1973;50.518;7.318;2024-01-11T00:09:44;102399.91;;;-4.98;100.00
3917;BME280;1973;50.518;7.318;2024-01-11T00:12:11;102392.81;;;-4.99;100.00
3917;BME280;1973;50.518;7.318;2024-01-11T00:14:37;102394.63;;;-5.00;100.00
3917;BME280;1973;50.518;7.318;2024-01-11T00:17:04;102392.00;;;-5.01;100.00
3917;BME280;1973;50.518;7.318;2024-01-11T00:19:31;102385.84;;;-5.03;100.00
3917;BME280;1973;50.518;7.318;2024-01-11T00:21:58;102391.34;;;-5.06;100.00
3917;BME280;1973;50.518;7.318;2024-01-11T00:24:24;102388.81;;;-5.09;100.00
3917;BME280;1973;50.518;7.318;2024-01-11T00:26:51;102390.63;;;-5.10;100.00
3917;BME280;1973;50.518;7.318;2024-01-11T00:29:17;102398.78;;;-5.11;100.00
3917;BME280;1973;50.518;7.318;2024-01-11T00:31:44;102395.28;;;-5.13;100.00
3917;BME280;1973;50.518;7.318;2024-01-11T00:34:10;102397.19;;;-5.15;100.00
3917;BME280;1973;50.518;7.318;2024-01-11T00:36:37;102405.31;;;-5.17;100.00
3917;BME280;1973;50.518;7.318;2024-01-11T00:39:05;102409.84;;;-5.17;100.00
3917;BME280;1973;50.518;7.318;2024-01-11T00:41:31;102406.34;;;-5.19;100.00
3917;BME280;1973;50.518;7.318;2024-01-11T00:43:58;102409.09;;;-5.21;100.00
3917;BME280;1973;50.518;7.318;2024-01-11T00:46:25;102408.25;;;-5.21;100.00
3917;BME280;1973;50.518;7.318;2024-01-11T00:48:51;102397.50;;;-5.21;100.00
3917;BME280;1973;50.518;7.318;2024-01-11T00:51:22;102403.81;;;-5.22;100.00
3917;BME280;1973;50.518;7.318;2024-01-11T00:53:48;102408.31;;;-5.23;100.00
3917;BME280;1973;50.518;7.318;2024-01-11T00:56:18;102397.50;;;-5.21;100.00
3917;BME280;1973;50.518;7.318;2024-01-11T00:58:45;102403.81;;;-5.22;100.00
3917;BME280;1973;50.518;7.318;2024-01-11T01:01:12;102401.13;;;-5.22;100.00
3917;BME280;1973;50.518;7.318;2024-01-11T01:03:39;102406.56;;;-5.24;100.00
3917;BME280;1973;50.518;7.318;2024-01-11T01:06:06;102411.94;;;-5.24;100.00
3917;BME280;1973;50.518;7.318;2024-01-11T01:08:33;102407.53;;;-5.25;100.00
3917;BME280;1973;50.518;7.318;2024-01-11T01:11:00;102410.28;;;-5.26;100.00
3917;BME280;1973;50.518;7.318;2024-01-11T01:13:26;102414.75;;;-5.27;100.00
3917;BME280;1973;50.518;7.318;2024-01-11T01:15:53;102412.19;;;-5.28;100.00
3917;BME280;1973;50.518;7.318;2024-01-11T01:18:19;102422.91;;;-5.28;100.00
3917;BME280;1973;50.518;7.318;2024-01-11T01:20:46;102415.63;;;-5.26;100.00
3917;BME280;1973;50.518;7.318;2024-01-11T01:23:13;102408.38;;;-5.24;100.00
3917;BME280;1973;50.518;7.318;2024-01-11T01:25:39;102406.50;;;-5.22;100.00
3917;BME280;1973;50.518;7.318;2024-01-11T01:28:06;102410.84;;;-5.20;100.00
3917;BME280;1973;50.518;7.318;2024-01-11T01:30:32;102411.72;;;-5.19;100.00
3917;BME280;1973;50.518;7.318;2024-01-11T01:32:59;102413.47;;;-5.18;100.00
3917;BME280;1973;50.518;7.318;2024-01-11T01:35:26;102415.22;;;-5.17;100.00
3917;BME280;1973;50.518;7.318;2024-01-11T01:37:53;102423.31;;;-5.19;100.00
3917;BME280;1973;50.518;7.318;2024-01-11T01:40:19;102417.88;;;-5.17;100.00
3917;BME280;1973;50.518;7.318;2024-01-11T01:42:46;102420.56;;;-5.17;100.00
3917;BME280;1973;50.518;7.318;2024-01-11T01:45:14;102426.88;;;-5.18;100.00
3917;BME280;1973;50.518;7.318;2024-01-11T01:47:42;102415.22;;;-5.17;100.00
3917;BME280;1973;50.518;7.318;2024-01-11T01:50:11;102425.13;;;-5.19;100.00
3917;BME280;1973;50.518;7.318;2024-01-11T01:52:40;102427.75;;;-5.18;100.00
3917;BME280;1973;50.518;7.318;2024-01-11T01:55:09;102428.69;;;-5.19;100.00
3917;BME280;1973;50.518;7.318;2024-01-11T01:57:37;102432.31;;;-5.20;100.00
3917;BME280;1973;50.518;7.318;2024-01-11T02:00:04;102432.41;;;-5.21;100.00
3917;BME280;1973;50.518;7.318;2024-01-11T02:02:34;102429.84;;;-5.24;100.00
3917;BME280;1973;50.518;7.318;2024-01-11T02:19:49;102438.13;;;-5.48;100.00
3917;BME280;1973;50.518;7.318;2024-01-11T02:22:22;102432.78;;;-5.48;100.00
3917;BME280;1973;50.518;7.318;2024-01-11T02:24:50;102440.97;;;-5.51;100.00
3917;BME280;1973;50.518;7.318;2024-01-11T02:27:16;102433.03;;;-5.54;100.00
3917;BME280;1973;50.518;7.318;2024-01-11T02:29:43;102433.13;;;-5.55;100.00
3917;BME280;1973;50.518;7.318;2024-01-11T02:32:10;102431.44;;;-5.58;100.00
3917;BME280;1973;50.518;7.318;2024-01-11T02:34:37;102433.34;;;-5.60;100.00
3917;BME280;1973;50.518;7.318;2024-01-11T02:37:05;102444.94;;;-5.59;100.00
3917;BME280;1973;50.518;7.318;2024-01-11T02:39:32;102452.16;;;-5.61;100.00
3917;BME280;1973;50.518;7.318;2024-01-11T02:41:59;102447.84;;;-5.64;100.00
3917;BME280;1973;50.518;7.318;2024-01-11T02:44:26;102447.84;;;-5.64;100.00
3917;BME280;1973;50.518;7.318;2024-01-11T02:46:52;102443.41;;;-5.65;100.00
3917;BME280;1973;50.518;7.318;2024-01-11T02:49:19;102439.94;;;-5.67;100.00
3917;BME280;1973;50.518;7.318;2024-01-11T02:51:46;102440.88;;;-5.68;100.00
3917;BME280;1973;50.518;7.318;2024-01-11T02:54:12;102437.41;;;-5.70;100.00
3917;BME280;1973;50.518;7.318;2024-01-11T02:56:39;102443.69;;;-5.71;100.00
3917;BME280;1973;50.518;7.318;2024-01-11T02:59:06;102442.03;;;-5.73;100.00
3917;BME280;1973;50.518;7.318;2024-01-11T03:01:32;102439.56;;;-5.78;100.00
3917;BME280;1973;50.518;7.318;2024-01-11T03:03:59;102445.84;;;-5.79;100.00
3917;BME280;1973;50.518;7.318;2024-01-11T03:06:26;102444.19;;;-5.81;100.00
3917;BME280;1973;50.518;7.318;2024-01-11T03:08:53;102441.53;;;-5.81;100.00
3917;BME280;1973;50.518;7.318;2024-01-11T03:11:19;102446.94;;;-5.83;100.00
3917;BME280;1973;50.518;7.318;2024-01-11T03:13:46;102426.38;;;-5.82;100.00
3917;BME280;1973;50.518;7.318;2024-01-11T03:16:12;102427.25;;;-5.82;100.00
3917;BME280;1973;50.518;7.318;2024-01-11T03:18:39;102425.50;;;-5.83;100.00
3917;BME280;1973;50.518;7.318;2024-01-11T03:21:06;102437.19;;;-5.84;100.00
3917;BME280;1973;50.518;7.318;2024-01-11T03:23:33;102430.06;;;-5.85;100.00
3917;BME280;1973;50.518;7.318;2024-01-11T03:25:59;102427.38;;;-5.85;100.00
3917;BME280;1973;50.518;7.318;2024-01-11T03:28:27;102425.75;;;-5.87;100.00
3917;BME280;1973;50.518;7.318;2024-01-11T03:30:53;102424.88;;;-5.88;100.00
3917;BME280;1973;50.518;7.318;2024-01-11T03:33:20;102422.19;;;-5.88;100.00
3917;BME280;1973;50.518;7.318;2024-01-11T03:35:47;102419.56;;;-5.89;100.00
3917;BME280;1973;50.518;7.318;2024-01-11T03:38:13;102416.84;;;-5.88;100.00
3917;BME280;1973;50.518;7.318;2024-01-11T03:40:40;102417.72;;;-5.87;100.00
3917;BME280;1973;50.518;7.318;2024-01-11T03:43:06;102409.72;;;-5.89;100.00
3917;BME280;1973;50.518;7.318;2024-01-11T03:45:33;102404.38;;;-5.89;100.00
3917;BME280;1973;50.518;7.318;2024-01-11T03:47:59;102407.97;;;-5.90;100.00
3917;BME280;1973;50.518;7.318;2024-01-11T03:56:08;102406.31;;;-5.93;100.00
3917;BME280;1973;50.518;7.318;2024-01-11T03:58:36;102400.97;;;-5.93;100.00
3917;BME280;1973;50.518;7.318;2024-01-11T04:01:03;102402.78;;;-5.93;100.00
3917;BME280;1973;50.518;7.318;2024-01-11T04:03:29;102401.03;;;-5.94;100.00
3917;BME280;1973;50.518;7.318;2024-01-11T04:05:56;102395.81;;;-5.97;100.00
3917;BME280;1973;50.518;7.318;2024-01-11T04:08:23;102402.09;;;-5.98;100.00
3917;BME280;1973;50.518;7.318;2024-01-11T04:10:49;102408.34;;;-5.98;100.00
3917;BME280;1973;50.518;7.318;2024-01-11T04:13:16;102411.88;;;-5.97;100.00
3917;BME280;1973;50.518;7.318;2024-01-11T04:15:42;102411.09;;;-5.99;100.00
3917;BME280;1973;50.518;7.318;2024-01-11T04:18:09;102425.38;;;-5.99;100.00
3917;BME280;1973;50.518;7.318;2024-01-11T04:20:35;102419.19;;;-6.01;100.00
3917;BME280;1973;50.518;7.318;2024-01-11T04:23:02;102419.25;;;-6.02;100.00
3917;BME280;1973;50.518;7.318;2024-01-11T04:25:29;102419.34;;;-6.04;100.00
3917;BME280;1973;50.518;7.318;2024-01-11T04:27:55;102416.66;;;-6.04;100.00
3917;BME280;1973;50.518;7.318;2024-01-11T04:30:22;102415.78;;;-6.04;100.00
3917;BME280;1973;50.518;7.318;2024-01-11T04:32:48;102426.50;;;-6.04;100.00
3917;BME280;1973;50.518;7.318;2024-01-11T04:35:15;102414.03;;;-6.05;100.00
3917;BME280;1973;50.518;7.318;2024-01-11T04:37:42;102409.66;;;-6.06;100.00
3917;BME280;1973;50.518;7.318;2024-01-11T04:40:08;102411.44;;;-6.07;100.00
3917;BME280;1973;50.518;7.318;2024-01-11T04:42:35;102415.94;;;-6.07;100.00
3917;BME280;1973;50.518;7.318;2024-01-11T04:45:02;102430.25;;;-6.08;100.00
3917;BME280;1973;50.518;7.318;2024-01-11T04:47:30;102436.56;;;-6.09;100.00
3917;BME280;1973;50.518;7.318;2024-01-11T04:49:56;102442.88;;;-6.10;100.00
3917;BME280;1973;50.518;7.318;2024-01-11T04:52:23;102436.66;;;-6.11;100.00
3917;BME280;1973;50.518;7.318;2024-01-11T04:54:49;102436.69;;;-6.12;100.00
3917;BME280;1973;50.518;7.318;2024-01-11T04:57:16;102429.69;;;-6.15;100.00
3917;BME280;1973;50.518;7.318;2024-01-11T04:59:42;102447.56;;;-6.15;100.00
3917;BME280;1973;50.518;7.318;2024-01-11T05:02:09;102446.78;;;-6.17;100.00
3917;BME280;1973;50.518;7.318;2024-01-11T05:04:36;102447.63;;;-6.17;100.00
3917;BME280;1973;50.518;7.318;2024-01-11T05:07:02;102450.28;;;-6.17;100.00
3917;BME280;1973;50.518;7.318;2024-01-11T05:09:29;102452.97;;;-6.17;100.00
3917;BME280;1973;50.518;7.318;2024-01-11T05:11:56;102441.41;;;-6.17;100.00
3917;BME280;1973;50.518;7.318;2024-01-11T05:14:22;102441.41;;;-6.17;100.00
3917;BME280;1973;50.518;7.318;2024-01-11T05:16:49;102450.38;;;-6.18;100.00
3917;BME280;1973;50.518;7.318;2024-01-11T05:19:16;102455.75;;;-6.18;100.00
3917;BME280;1973;50.518;7.318;2024-01-11T05:21:43;102454.00;;;-6.19;100.00
3917;BME280;1973;50.518;7.318;2024-01-11T05:24:09;102463.84;;;-6.20;100.00
3917;BME280;1973;50.518;7.318;2024-01-11T05:26:37;102467.47;;;-6.21;100.00
3917;BME280;1973;50.518;7.318;2024-01-11T05:29:04;102477.31;;;-6.21;100.00
3917;BME280;1973;50.518;7.318;2024-01-11T05:31:31;102469.28;;;-6.21;100.00
3917;BME280;1973;50.518;7.318;2024-01-11T05:33:58;102470.22;;;-6.22;100.00
3917;BME280;1973;50.518;7.318;2024-01-11T05:36:25;102470.22;;;-6.22;100.00
3917;BME280;1973;50.518;7.318;2024-01-11T05:38:51;102468.47;;;-6.23;100.00
3917;BME280;1973;50.518;7.318;2024-01-11T05:41:17;102476.56;;;-6.25;100.00
3917;BME280;1973;50.518;7.318;2024-01-11T05:43:44;102482.91;;;-6.27;100.00
3917;BME280;1973;50.518;7.318;2024-01-11T05:46:11;102483.06;;;-6.30;100.00
3917;BME280;1973;50.518;7.318;2024-01-11T05:48:37;102475.16;;;-6.33;100.00
3917;BME280;1973;50.518;7.318;2024-01-11T05:51:04;102478.84;;;-6.36;100.00
3917;BME280;1973;50.518;7.318;2024-01-11T05:53:31;102494.06;;;-6.36;100.00
3917;BME280;1973;50.518;7.318;2024-01-11T05:56:01;102497.72;;;-6.39;100.00
3917;BME280;1973;50.518;7.318;2024-01-11T05:58:29;102499.53;;;-6.39;100.00
3917;BME280;1973;50.518;7.318;2024-01-11T06:00:56;102490.69;;;-6.42;100.00
3917;BME280;1973;50.518;7.318;2024-01-11T06:03:23;102495.31;;;-6.45;100.00
3917;BME280;1973;50.518;7.318;2024-01-11T06:05:50;102509.63;;;-6.46;100.00
3917;BME280;1973;50.518;7.318;2024-01-11T06:08:16;102514.13;;;-6.47;100.00
3917;BME280;1973;50.518;7.318;2024-01-11T06:10:43;102528.44;;;-6.48;100.00
3917;BME280;1973;50.518;7.318;2024-01-11T06:13:10;102516.91;;;-6.50;100.00
3917;BME280;1973;50.518;7.318;2024-01-11T06:15:36;102525.81;;;-6.49;100.00
3917;BME280;1973;50.518;7.318;2024-01-11T06:18:03;102529.38;;;-6.49;100.00
3917;BME280;1973;50.518;7.318;2024-01-11T06:20:31;102539.16;;;-6.48;100.00
3917;BME280;1973;50.518;7.318;2024-01-11T06:22:57;102527.53;;;-6.47;100.00
3917;BME280;1973;50.518;7.318;2024-01-11T06:25:24;102538.16;;;-6.45;100.00
3917;BME280;1973;50.518;7.318;2024-01-11T06:27:50;102545.31;;;-6.46;100.00
3917;BME280;1973;50.518;7.318;2024-01-11T06:30:17;102547.13;;;-6.46;100.00
3917;BME280;1973;50.518;7.318;2024-01-11T06:32:44;102548.00;;;-6.46;100.00
3917;BME280;1973;50.518;7.318;2024-01-11T06:35:10;102546.19;;;-6.45;100.00
3917;BME280;1973;50.518;7.318;2024-01-11T06:37:37;102560.47;;;-6.45;100.00
3917;BME280;1973;50.518;7.318;2024-01-11T06:40:04;102559.53;;;-6.44;100.00
3917;BME280;1973;50.518;7.318;2024-01-11T06:42:31;102558.72;;;-6.46;100.00
3917;BME280;1973;50.518;7.318;2024-01-11T06:44:57;102570.44;;;-6.48;100.00
3917;BME280;1973;50.518;7.318;2024-01-11T06:47:24;102561.50;;;-6.49;100.00
3917;BME280;1973;50.518;7.318;2024-01-11T06:49:51;102553.47;;;-6.49;100.00
3917;BME280;1973;50.518;7.318;2024-01-11T06:52:17;102549.88;;;-6.48;100.00
3917;BME280;1973;50.518;7.318;2024-01-11T06:54:46;102557.91;;;-6.48;100.00
3917;BME280;1973;50.518;7.318;2024-01-11T06:57:12;102560.50;;;-6.46;100.00
3917;BME280;1973;50.518;7.318;2024-01-11T06:59:38;102558.72;;;-6.46;100.00
3917;BME280;1973;50.518;7.318;2024-01-11T07:02:05;102565.94;;;-6.48;100.00
3917;BME280;1973;50.518;7.318;2024-01-11T07:04:32;102563.28;;;-6.48;100.00
3917;BME280;1973;50.518;7.318;2024-01-11T07:07:00;102566.88;;;-6.49;100.00
3917;BME280;1973;50.518;7.318;2024-01-11T07:09:26;102561.56;;;-6.50;100.00
3917;BME280;1973;50.518;7.318;2024-01-11T07:11:53;102566.06;;;-6.51;100.00
3917;BME280;1973;50.518;7.318;2024-01-11T07:14:19;102577.75;;;-6.53;100.00
3917;BME280;1973;50.518;7.318;2024-01-11T07:16:46;102577.75;;;-6.53;100.00
3917;BME280;1973;50.518;7.318;2024-01-11T07:19:13;102576.16;;;-6.57;100.00
3917;BME280;1973;50.518;7.318;2024-01-11T07:21:39;102581.50;;;-6.57;100.00
3917;BME280;1973;50.518;7.318;2024-01-11T07:24:06;102589.63;;;-6.59;100.00
3917;BME280;1973;50.518;7.318;2024-01-11T07:26:33;102586.09;;;-6.61;100.00
3917;BME280;1973;50.518;7.318;2024-01-11T07:28:59;102589.75;;;-6.62;100.00
3917;BME280;1973;50.518;7.318;2024-01-11T07:31:26;102583.44;;;-6.61;100.00
3917;BME280;1973;50.518;7.318;2024-01-11T07:33:52;102581.72;;;-6.62;100.00
3917;BME280;1973;50.518;7.318;2024-01-11T07:36:19;102578.16;;;-6.62;100.00
3917;BME280;1973;50.518;7.318;2024-01-11T07:38:46;102571.84;;;-6.61;100.00
3917;BME280;1973;50.518;7.318;2024-01-11T07:41:12;102566.50;;;-6.61;100.00
3917;BME280;1973;50.518;7.318;2024-01-11T07:43:40;102572.66;;;-6.59;100.00
3917;BME280;1973;50.518;7.318;2024-01-11T07:46:19;102563.75;;;-6.60;100.00
3917;BME280;1973;50.518;7.318;2024-01-11T07:48:58;102569.06;;;-6.58;100.00
3917;BME280;1973;50.518;7.318;2024-01-11T07:51:25;102557.34;;;-6.56;100.00
3917;BME280;1973;50.518;7.318;2024-01-11T07:53:53;102563.41;;;-6.51;100.00
3917;BME280;1973;50.518;7.318;2024-01-11T07:56:19;102562.22;;;-6.44;100.00
3917;BME280;1973;50.518;7.318;2024-01-11T07:58:46;102570.03;;;-6.39;100.00
3917;BME280;1973;50.518;7.318;2024-01-11T08:01:16;102572.53;;;-6.34;100.00
3917;BME280;1973;50.518;7.318;2024-01-11T08:03:44;102573.22;;;-6.29;100.00
3917;BME280;1973;50.518;7.318;2024-01-11T08:06:14;102570.41;;;-6.26;100.00
3917;BME280;1973;50.518;7.318;2024-01-11T08:08:40;102573.88;;;-6.24;100.00
3917;BME280;1973;50.518;7.318;2024-01-11T08:11:07;102580.06;;;-6.22;100.00
3917;BME280;1973;50.518;7.318;2024-01-11T08:13:35;102579.88;;;-6.18;100.00
3917;BME280;1973;50.518;7.318;2024-01-11T08:16:04;102586.91;;;-6.15;100.00
3917;BME280;1973;50.518;7.318;2024-01-11T08:18:31;102593.94;;;-6.13;100.00
3917;BME280;1973;50.518;7.318;2024-01-11T08:20:57;102598.31;;;-6.10;100.00
3917;BME280;1973;50.518;7.318;2024-01-11T08:23:24;102597.28;;;-6.08;100.00
3917;BME280;1973;50.518;7.318;2024-01-11T08:25:51;102589.22;;;-6.06;100.00
3917;BME280;1973;50.518;7.318;2024-01-11T08:28:19;102587.31;;;-6.04;100.00
3917;BME280;1973;50.518;7.318;2024-01-11T08:30:46;102596.97;;;-6.00;100.00
3917;BME280;1973;50.518;7.318;2024-01-11T08:33:13;102594.16;;;-5.97;100.00
3917;BME280;1973;50.518;7.318;2024-01-11T08:35:40;102594.91;;;-5.94;100.00
3917;BME280;1973;50.518;7.318;2024-01-11T08:38:08;102604.56;;;-5.89;100.00
3917;BME280;1973;50.518;7.318;2024-01-11T08:40:35;102602.63;;;-5.86;100.00
3917;BME280;1973;50.518;7.318;2024-01-11T08:43:02;102602.38;;;-5.81;100.00
3917;BME280;1973;50.518;7.318;2024-01-11T08:45:29;102606.72;;;-5.79;100.00
3917;BME280;1973;50.518;7.318;2024-01-11T08:47:56;102595.00;;;-5.76;100.00
3917;BME280;1973;50.518;7.318;2024-01-11T08:50:23;102591.19;;;-5.71;100.00
3917;BME280;1973;50.518;7.318;2024-01-11T08:52:52;102596.28;;;-5.65;100.00
3917;BME280;1973;50.518;7.318;2024-01-11T08:55:22;102596.94;;;-5.60;100.00
3917;BME280;1973;50.518;7.318;2024-01-11T08:57:48;102590.38;;;-5.53;100.00
3917;BME280;1973;50.518;7.318;2024-01-11T09:00:15;102593.59;;;-5.45;100.00
3917;BME280;1973;50.518;7.318;2024-01-11T09:02:45;102597.69;;;-5.36;100.00
3917;BME280;1973;50.518;7.318;2024-01-11T09:05:14;102600.84;;;-5.28;100.00
3917;BME280;1973;50.518;7.318;2024-01-11T09:07:41;102612.25;;;-5.23;100.00
3917;BME280;1973;50.518;7.318;2024-01-11T09:10:09;102603.09;;;-5.17;100.00
3917;BME280;1973;50.518;7.318;2024-01-11T09:12:35;102604.53;;;-5.10;100.00
3917;BME280;1973;50.518;7.318;2024-01-11T09:15:03;102600.63;;;-5.03;100.00
3917;BME280;1973;50.518;7.318;2024-01-11T09:17:29;102585.09;;;-4.97;100.00
3917;BME280;1973;50.518;7.318;2024-01-11T09:19:56;102583.84;;;-4.89;100.00
3917;BME280;1973;50.518;7.318;2024-01-11T09:22:22;102578.28;;;-4.85;100.00
3917;BME280;1973;50.518;7.318;2024-01-11T09:24:50;102581.59;;;-4.80;100.00
3917;BME280;1973;50.518;7.318;2024-01-11T09:27:17;102588.41;;;-4.73;100.00
3917;BME280;1973;50.518;7.318;2024-01-11T09:29:44;102593.19;;;-4.61;100.00
3917;BME280;1973;50.518;7.318;2024-01-11T09:32:12;102594.50;;;-4.51;100.00
3917;BME280;1973;50.518;7.318;2024-01-11T09:34:39;102591.44;;;-4.43;100.00
3917;BME280;1973;50.518;7.318;2024-01-11T09:37:06;102597.09;;;-4.30;100.00
3917;BME280;1973;50.518;7.318;2024-01-11T09:39:32;102603.50;;;-4.16;100.00
3917;BME280;1973;50.518;7.318;2024-01-11T09:42:06;102622.44;;;-4.00;100.00
3917;BME280;1973;50.518;7.318;2024-01-11T09:44:33;102619.03;;;-3.86;100.00
3917;BME280;1973;50.518;7.318;2024-01-11T09:47:01;102614.00;;;-3.75;100.00
3917;BME280;1973;50.518;7.318;2024-01-11T09:49:30;102605.28;;;-3.63;100.00
3917;BME280;1973;50.518;7.318;2024-01-11T09:51:57;102596.81;;;-3.56;100.00
3917;BME280;1973;50.518;7.318;2024-01-11T09:54:25;102600.69;;;-3.44;100.00
3917;BME280;1973;50.518;7.318;2024-01-11T09:56:53;102600.88;;;-3.31;100.00
3917;BME280;1973;50.518;7.318;2024-01-11T09:59:21;102602.69;;;-3.15;100.00
3917;BME280;1973;50.518;7.318;2024-01-11T10:01:50;102603.41;;;-2.96;100.00
3917;BME280;1973;50.518;7.318;2024-01-11T10:04:17;102602.47;;;-2.79;100.00
3917;BME280;1973;50.518;7.318;2024-01-11T10:06:44;102593.53;;;-2.64;100.00
3917;BME280;1973;50.518;7.318;2024-01-11T10:09:11;102584.41;;;-2.46;100.00
3917;BME280;1973;50.518;7.318;2024-01-11T10:11:39;102573.50;;;-2.28;100.00
3917;BME280;1973;50.518;7.318;2024-01-11T10:14:06;102572.94;;;-2.04;100.00
3917;BME280;1973;50.518;7.318;2024-01-11T10:16:33;102554.81;;;-1.72;100.00
3917;BME280;1973;50.518;7.318;2024-01-11T10:18:59;102567.38;;;-1.57;100.00
3917;BME280;1973;50.518;7.318;2024-01-11T10:21:27;102561.91;;;-1.27;100.00
3917;BME280;1973;50.518;7.318;2024-01-11T10:23:53;102565.75;;;-0.88;100.00
3917;BME280;1973;50.518;7.318;2024-01-11T10:26:20;102565.00;;;-0.50;100.00
3917;BME280;1973;50.518;7.318;2024-01-11T10:28:48;102572.44;;;-0.12;100.00
3917;BME280;1973;50.518;7.318;2024-01-11T10:31:15;102556.47;;;0.23;100.00
3917;BME280;1973;50.518;7.318;2024-01-11T10:33:41;102564.97;;;0.56;100.00
3917;BME280;1973;50.518;7.318;2024-01-11T10:36:09;102563.44;;;0.90;100.00
3917;BME280;1973;50.518;7.318;2024-01-11T10:38:39;102556.75;;;0.95;100.00
3917;BME280;1973;50.518;7.318;2024-01-11T10:41:06;102546.50;;;1.12;100.00
3917;BME280;1973;50.518;7.318;2024-01-11T10:43:37;102548.25;;;1.13;100.00
3917;BME280;1973;50.518;7.318;2024-01-11T10:46:05;102544.75;;;1.23;100.00
3917;BME280;1973;50.518;7.318;2024-01-11T10:48:39;102539.69;;;1.42;100.00
3917;BME280;1973;50.518;7.318;2024-01-11T10:51:12;102542.72;;;1.51;100.00
3917;BME280;1973;50.518;7.318;2024-01-11T10:53:46;102532.03;;;1.60;100.00
3917;BME280;1973;50.518;7.318;2024-01-11T10:56:15;102539.13;;;1.74;100.00
3917;BME280;1973;50.518;7.318;2024-01-11T10:58:45;102535.31;;;2.00;100.00
3917;BME280;1973;50.518;7.318;2024-01-11T11:01:14;102532.94;;;2.30;100.00
3917;BME280;1973;50.518;7.318;2024-01-11T11:03:43;102528.13;;;2.34;100.00
3917;BME280;1973;50.518;7.318;2024-01-11T11:06:11;102516.94;;;2.50;100.00
3917;BME280;1973;50.518;7.318;2024-01-11T11:08:39;102521.41;;;2.62;100.00
3917;BME280;1973;50.518;7.318;2024-01-11T11:11:06;102515.22;;;2.93;100.00
3917;BME280;1973;50.518;7.318;2024-01-11T11:13:34;102511.63;;;3.26;97.17
3917;BME280;1973;50.518;7.318;2024-01-11T11:16:01;102510.22;;;3.54;96.65
3917;BME280;1973;50.518;7.318;2024-01-11T11:18:31;102510.56;;;3.92;92.72
3917;BME280;1973;50.518;7.318;2024-01-11T11:21:08;102511.75;;;4.31;80.78
3917;BME280;1973;50.518;7.318;2024-01-11T11:23:34;102495.63;;;4.49;85.86
3917;BME280;1973;50.518;7.318;2024-01-11T11:26:01;102492.47;;;4.74;81.01
3917;BME280;1973;50.518;7.318;2024-01-11T11:28:28;102486.81;;;4.96;78.19
3917;BME280;1973;50.518;7.318;2024-01-11T11:30:54;102495.75;;;4.98;75.06
3917;BME280;1973;50.518;7.318;2024-01-11T11:33:24;102495.38;;;5.12;71.14
3917;BME280;1973;50.518;7.318;2024-01-11T11:35:53;102487.34;;;5.20;66.56
3917;BME280;1973;50.518;7.318;2024-01-11T11:38:27;102498.13;;;5.22;65.73
3917;BME280;1973;50.518;7.318;2024-01-11T11:40:59;102495.97;;;5.25;64.59
3917;BME280;1973;50.518;7.318;2024-01-11T11:43:27;102495.97;;;5.25;62.31
3917;BME280;1973;50.518;7.318;2024-01-11T11:45:54;102494.69;;;5.29;61.83
3917;BME280;1973;50.518;7.318;2024-01-11T11:51:12;102494.09;;;5.16;56.66
3917;BME280;1973;50.518;7.318;2024-01-11T11:53:46;102497.81;;;5.15;59.63
3917;BME280;1973;50.518;7.318;2024-01-11T11:56:14;102502.19;;;4.97;60.00
3917;BME280;1973;50.518;7.318;2024-01-11T11:58:44;102482.59;;;5.13;58.31
3917;BME280;1973;50.518;7.318;2024-01-11T12:01:12;102495.25;;;5.23;59.37
3917;BME280;1973;50.518;7.318;2024-01-11T12:03:41;102492.84;;;5.30;58.36
3917;BME280;1973;50.518;7.318;2024-01-11T12:06:09;102494.16;;;5.35;57.87
3917;BME280;1973;50.518;7.318;2024-01-11T12:08:37;102499.47;;;5.37;58.03
3917;BME280;1973;50.518;7.318;2024-01-11T12:11:07;102485.69;;;5.38;57.26
3917;BME280;1973;50.518;7.318;2024-01-11T12:13:34;102487.84;;;5.45;56.76
3917;BME280;1973;50.518;7.318;2024-01-11T12:16:02;102493.00;;;5.48;57.73
3917;BME280;1973;50.518;7.318;2024-01-11T12:18:29;102486.25;;;5.52;57.12
3917;BME280;1973;50.518;7.318;2024-01-11T12:20:56;102487.25;;;5.51;57.47
3917;BME280;1973;50.518;7.318;2024-01-11T12:23:23;102487.59;;;5.67;57.23
3917;BME280;1973;50.518;7.318;2024-01-11T12:25:50;102497.09;;;5.82;57.10
3917;BME280;1973;50.518;7.318;2024-01-11T12:28:16;102491.97;;;5.98;56.87
3917;BME280;1973;50.518;7.318;2024-01-11T12:30:44;102486.06;;;6.12;56.61
3917;BME280;1973;50.518;7.318;2024-01-11T12:33:11;102475.22;;;6.30;55.95
3917;BME280;1973;50.518;7.318;2024-01-11T12:35:39;102466.84;;;6.41;55.52
3917;BME280;1973;50.518;7.318;2024-01-11T12:38:06;102466.00;;;6.41;55.47
3917;BME280;1973;50.518;7.318;2024-01-11T12:40:34;102453.66;;;6.73;55.44
3917;BME280;1973;50.518;7.318;2024-01-11T12:43:02;102454.78;;;6.80;55.18
3917;BME280;1973;50.518;7.318;2024-01-11T12:45:29;102450.41;;;6.88;54.71
3917;BME280;1973;50.518;7.318;2024-01-11T12:47:56;102450.88;;;6.83;54.40
3917;BME280;1973;50.518;7.318;2024-01-11T12:50:23;102437.28;;;6.91;54.13
3917;BME280;1973;50.518;7.318;2024-01-11T12:53:14;102437.91;;;6.85;49.46
3917;BME280;1973;50.518;7.318;2024-01-11T12:55:48;102449.78;;;7.03;54.27
3917;BME280;1973;50.518;7.318;2024-01-11T12:58:24;102435.94;;;7.05;52.87
3917;BME280;1973;50.518;7.318;2024-01-11T13:00:53;102434.06;;;7.05;52.83
3917;BME280;1973;50.518;7.318;2024-01-11T13:03:20;102432.97;;;6.98;52.42
3917;BME280;1973;50.518;7.318;2024-01-11T13:05:47;102437.59;;;7.15;52.49
3917;BME280;1973;50.518;7.318;2024-01-11T13:08:15;102433.56;;;7.37;53.13
3917;BME280;1973;50.518;7.318;2024-01-11T13:10:44;102432.66;;;7.46;52.40
3917;BME280;1973;50.518;7.318;2024-01-11T13:13:13;102430.94;;;7.63;52.05
3917;BME280;1973;50.518;7.318;2024-01-11T13:15:40;102431.97;;;7.79;51.77
3917;BME280;1973;50.518;7.318;2024-01-11T13:18:07;102421.16;;;7.78;51.45
3917;BME280;1973;50.518;7.318;2024-01-11T13:20:33;102435.53;;;7.80;51.55
3917;BME280;1973;50.518;7.318;2024-01-11T13:23:19;102432.25;;;7.94;47.65
3917;BME280;1973;50.518;7.318;2024-01-11T13:25:49;102437.31;;;8.07;51.14
3917;BME280;1973;50.518;7.318;2024-01-11T13:28:16;102432.72;;;8.07;50.46
3917;BME280;1973;50.518;7.318;2024-01-11T13:30:45;102430.19;;;8.14;50.14